sensor_id;sensor_type;location;lat;lon;timestamp;P1;durP1;ratioP1;P2;durP2;ratioP2
4634;SDS011;2330;48.158;11.816;2023-06-10T00:00:26;4.80;;;4.27;;
4634;SDS011;2330;48.158;11.816;2023-06-10T00:02:53;4.37;;;3.97;;
4634;SDS011;2330;48.158;11.816;2023-06-10T00:05:20;4.43;;;4.13;;
4634;SDS011;2330;48.158;11.816;2023-06-10T00:07:47;4.47;;;4.07;;
4634;SDS011;2330;48.158;11.816;2023-06-10T00:10:14;5.10;;;4.57;;
4634;SDS011;2330;48.158;11.816;2023-06-10T00:12:42;4.30;;;4.00;;
4634;SDS011;2330;48.158;11.816;2023-06-10T00:15:09;5.00;;;4.50;;
4634;SDS011;2330;48.158;11.816;2023-06-10T00:17:37;4.27;;;3.97;;
4634;SDS011;2330;48.158;11.816;2023-06-10T00:20:09;4.90;;;4.50;;
4634;SDS011;2330;48.158;11.816;2023-06-10T00:22:40;5.00;;;4.60;;
4634;SDS011;2330;48.158;11.816;2023-06-10T00:25:08;5.00;;;4.60;;
4634;SDS011;2330;48.158;11.816;2023-06-10T00:27:35;5.23;;;4.83;;
4634;SDS011;2330;48.158;11.816;2023-06-10T00:30:03;4.57;;;4.17;;
4634;SDS011;2330;48.158;11.816;2023-06-10T00:32:33;4.93;;;4.53;;
4634;SDS011;2330;48.158;11.816;2023-06-10T00:35:01;5.20;;;4.80;;
4634;SDS011;2330;48.158;11.816;2023-06-10T00:37:28;4.73;;;4.33;;
4634;SDS011;2330;48.158;11.816;2023-06-10T00:39:55;5.27;;;4.73;;
4634;SDS011;2330;48.158;11.816;2023-06-10T00:42:22;5.47;;;4.47;;
4634;SDS011;2330;48.158;11.816;2023-06-10T00:44:50;4.47;;;4.07;;
4634;SDS011;2330;48.158;11.816;2023-06-10T00:47:17;5.30;;;4.83;;
4634;SDS011;2330;48.158;11.816;2023-06-10T00:49:45;5.13;;;4.63;;
4634;SDS011;2330;48.158;11.816;2023-06-10T00:52:12;5.10;;;4.67;;
4634;SDS011;2330;48.158;11.816;2023-06-10T00:54:42;5.80;;;5.30;;
4634;SDS011;2330;48.158;11.816;2023-06-10T00:57:09;5.33;;;4.83;;
4634;SDS011;2330;48.158;11.816;2023-06-10T00:59:43;5.50;;;5.10;;
4634;SDS011;2330;48.158;11.816;2023-06-10T01:02:14;5.70;;;5.03;;
4634;SDS011;2330;48.158;11.816;2023-06-10T01:04:41;7.73;;;5.30;;
4634;SDS011;2330;48.158;11.816;2023-06-10T01:09:59;6.27;;;5.63;;
4634;SDS011;2330;48.158;11.816;2023-06-10T01:12:39;6.30;;;5.80;;
4634;SDS011;2330;48.158;11.816;2023-06-10T01:15:16;5.83;;;5.33;;
4634;SDS011;2330;48.158;11.816;2023-06-10T01:17:56;5.23;;;4.83;;
4634;SDS011;2330;48.158;11.816;2023-06-10T01:20:28;6.60;;;6.00;;
4634;SDS011;2330;48.158;11.816;2023-06-10T01:22:59;5.10;;;4.70;;
4634;SDS011;2330;48.158;11.816;2023-06-10T01:25:29;6.77;;;6.17;;
4634;SDS011;2330;48.158;11.816;2023-06-10T01:28:04;7.33;;;6.30;;
4634;SDS011;2330;48.158;11.816;2023-06-10T01:30:43;5.57;;;5.17;;
4634;SDS011;2330;48.158;11.816;2023-06-10T01:33:19;6.07;;;5.47;;
4634;SDS011;2330;48.158;11.816;2023-06-10T01:35:51;6.50;;;5.90;;
4634;SDS011;2330;48.158;11.816;2023-06-10T01:38:19;5.50;;;5.10;;
4634;SDS011;2330;48.158;11.816;2023-06-10T01:40:46;6.13;;;5.63;;
4634;SDS011;2330;48.158;11.816;2023-06-10T01:43:15;5.97;;;5.47;;
4634;SDS011;2330;48.158;11.816;2023-06-10T01:45:42;7.20;;;6.40;;
4634;SDS011;2330;48.158;11.816;2023-06-10T01:48:08;7.60;;;6.97;;
4634;SDS011;2330;48.158;11.816;2023-06-10T01:50:35;7.30;;;6.40;;
4634;SDS011;2330;48.158;11.816;2023-06-10T01:53:03;7.37;;;5.87;;
4634;SDS011;2330;48.158;11.816;2023-06-10T01:55:31;6.07;;;5.60;;
4634;SDS011;2330;48.158;11.816;2023-06-10T01:57:58;7.30;;;6.67;;
4634;SDS011;2330;48.158;11.816;2023-06-10T02:00:24;6.60;;;6.10;;
4634;SDS011;2330;48.158;11.816;2023-06-10T02:02:51;7.00;;;6.40;;
4634;SDS011;2330;48.158;11.816;2023-06-10T02:05:18;7.10;;;6.53;;
4634;SDS011;2330;48.158;11.816;2023-06-10T02:07:45;7.20;;;6.60;;
4634;SDS011;2330;48.158;11.816;2023-06-10T02:10:11;6.83;;;6.23;;
4634;SDS011;2330;48.158;11.816;2023-06-10T02:12:38;6.43;;;5.93;;
4634;SDS011;2330;48.158;11.816;2023-06-10T02:15:05;7.40;;;6.57;;
4634;SDS011;2330;48.158;11.816;2023-06-10T02:17:32;7.23;;;6.53;;
4634;SDS011;2330;48.158;11.816;2023-06-10T02:19:59;7.20;;;6.50;;
4634;SDS011;2330;48.158;11.816;2023-06-10T02:22:32;7.40;;;6.80;;
4634;SDS011;2330;48.158;11.816;2023-06-10T02:24:59;7.33;;;6.73;;
4634;SDS011;2330;48.158;11.816;2023-06-10T02:27:26;6.57;;;5.97;;
4634;SDS011;2330;48.158;11.816;2023-06-10T02:29:53;10.70;;;6.60;;
4634;SDS011;2330;48.158;11.816;2023-06-10T02:32:20;7.80;;;7.20;;
4634;SDS011;2330;48.158;11.816;2023-06-10T02:34:47;11.20;;;7.07;;
4634;SDS011;2330;48.158;11.816;2023-06-10T02:37:15;6.73;;;6.13;;
4634;SDS011;2330;48.158;11.816;2023-06-10T02:39:42;7.33;;;6.73;;
4634;SDS011;2330;48.158;11.816;2023-06-10T02:42:09;6.80;;;6.20;;
4634;SDS011;2330;48.158;11.816;2023-06-10T02:44:37;9.17;;;7.33;;
4634;SDS011;2330;48.158;11.816;2023-06-10T02:47:04;7.67;;;6.93;;
4634;SDS011;2330;48.158;11.816;2023-06-10T02:49:31;8.00;;;7.23;;
4634;SDS011;2330;48.158;11.816;2023-06-10T02:51:58;7.63;;;6.80;;
4634;SDS011;2330;48.158;11.816;2023-06-10T02:54:25;18.70;;;7.57;;
4634;SDS011;2330;48.158;11.816;2023-06-10T02:56:52;8.10;;;7.40;;
4634;SDS011;2330;48.158;11.816;2023-06-10T02:59:19;7.97;;;7.27;;
4634;SDS011;2330;48.158;11.816;2023-06-10T03:01:45;8.70;;;7.90;;
4634;SDS011;2330;48.158;11.816;2023-06-10T03:04:12;7.20;;;6.60;;
4634;SDS011;2330;48.158;11.816;2023-06-10T03:06:41;7.67;;;7.00;;
4634;SDS011;2330;48.158;11.816;2023-06-10T03:09:09;8.13;;;6.77;;
4634;SDS011;2330;48.158;11.816;2023-06-10T03:11:37;8.00;;;7.33;;
4634;SDS011;2330;48.158;11.816;2023-06-10T03:14:04;7.77;;;7.17;;
4634;SDS011;2330;48.158;11.816;2023-06-10T03:16:31;10.10;;;8.97;;
4634;SDS011;2330;48.158;11.816;2023-06-10T03:18:57;8.37;;;7.57;;
4634;SDS011;2330;48.158;11.816;2023-06-10T03:21:24;8.23;;;7.47;;
4634;SDS011;2330;48.158;11.816;2023-06-10T03:23:51;8.87;;;8.13;;
4634;SDS011;2330;48.158;11.816;2023-06-10T03:26:18;8.50;;;7.50;;
4634;SDS011;2330;48.158;11.816;2023-06-10T03:28:48;9.13;;;7.97;;
4634;SDS011;2330;48.158;11.816;2023-06-10T03:31:15;10.53;;;7.70;;
4634;SDS011;2330;48.158;11.816;2023-06-10T03:33:43;7.53;;;6.83;;
4634;SDS011;2330;48.158;11.816;2023-06-10T03:36:10;8.80;;;8.03;;
4634;SDS011;2330;48.158;11.816;2023-06-10T03:38:36;8.47;;;7.67;;
4634;SDS011;2330;48.158;11.816;2023-06-10T03:41:03;8.40;;;7.60;;
4634;SDS011;2330;48.158;11.816;2023-06-10T03:43:30;8.83;;;8.10;;
4634;SDS011;2330;48.158;11.816;2023-06-10T03:45:57;8.93;;;8.13;;
4634;SDS011;2330;48.158;11.816;2023-06-10T03:48:24;8.03;;;7.33;;
4634;SDS011;2330;48.158;11.816;2023-06-10T03:50:51;8.40;;;7.60;;
4634;SDS011;2330;48.158;11.816;2023-06-10T03:53:18;11.07;;;8.70;;
4634;SDS011;2330;48.158;11.816;2023-06-10T03:55:45;9.37;;;8.37;;
4634;SDS011;2330;48.158;11.816;2023-06-10T03:58:12;8.57;;;7.87;;
4634;SDS011;2330;48.158;11.816;2023-06-10T04:00:40;9.10;;;8.30;;
4634;SDS011;2330;48.158;11.816;2023-06-10T04:03:08;9.87;;;8.87;;
4634;SDS011;2330;48.158;11.816;2023-06-10T04:05:41;8.33;;;7.73;;
4634;SDS011;2330;48.158;11.816;2023-06-10T04:08:08;9.23;;;8.30;;
4634;SDS011;2330;48.158;11.816;2023-06-10T04:10:35;8.70;;;7.80;;
4634;SDS011;2330;48.158;11.816;2023-06-10T04:13:02;8.90;;;8.00;;
4634;SDS011;2330;48.158;11.816;2023-06-10T04:15:29;11.47;;;9.27;;
4634;SDS011;2330;48.158;11.816;2023-06-10T04:17:59;8.53;;;7.73;;
4634;SDS011;2330;48.158;11.816;2023-06-10T04:20:27;9.67;;;8.77;;
4634;SDS011;2330;48.158;11.816;2023-06-10T04:22:54;8.13;;;7.33;;
4634;SDS011;2330;48.158;11.816;2023-06-10T04:25:21;11.03;;;7.90;;
4634;SDS011;2330;48.158;11.816;2023-06-10T04:27:48;7.83;;;7.23;;
4634;SDS011;2330;48.158;11.816;2023-06-10T04:30:15;9.20;;;8.33;;
4634;SDS011;2330;48.158;11.816;2023-06-10T04:32:42;8.37;;;7.67;;
4634;SDS011;2330;48.158;11.816;2023-06-10T04:35:11;13.13;;;8.93;;
4634;SDS011;2330;48.158;11.816;2023-06-10T04:37:39;10.43;;;9.43;;
4634;SDS011;2330;48.158;11.816;2023-06-10T04:40:07;9.00;;;8.27;;
4634;SDS011;2330;48.158;11.816;2023-06-10T04:42:35;9.37;;;8.57;;
4634;SDS011;2330;48.158;11.816;2023-06-10T04:45:02;8.30;;;7.53;;
4634;SDS011;2330;48.158;11.816;2023-06-10T04:47:33;9.23;;;8.33;;
4634;SDS011;2330;48.158;11.816;2023-06-10T04:50:00;9.07;;;8.37;;
4634;SDS011;2330;48.158;11.816;2023-06-10T04:52:28;8.67;;;7.90;;
4634;SDS011;2330;48.158;11.816;2023-06-10T04:54:57;8.27;;;7.60;;
4634;SDS011;2330;48.158;11.816;2023-06-10T04:57:24;8.77;;;8.07;;
4634;SDS011;2330;48.158;11.816;2023-06-10T04:59:52;10.63;;;9.73;;
4634;SDS011;2330;48.158;11.816;2023-06-10T05:02:19;9.23;;;8.43;;
4634;SDS011;2330;48.158;11.816;2023-06-10T05:04:46;10.23;;;9.30;;
4634;SDS011;2330;48.158;11.816;2023-06-10T05:07:13;10.30;;;9.30;;
4634;SDS011;2330;48.158;11.816;2023-06-10T05:09:40;9.00;;;8.30;;
4634;SDS011;2330;48.158;11.816;2023-06-10T05:12:07;10.10;;;9.10;;
4634;SDS011;2330;48.158;11.816;2023-06-10T05:14:35;9.83;;;8.90;;
4634;SDS011;2330;48.158;11.816;2023-06-10T05:17:02;8.37;;;7.67;;
4634;SDS011;2330;48.158;11.816;2023-06-10T05:19:29;9.03;;;8.30;;
4634;SDS011;2330;48.158;11.816;2023-06-10T05:21:55;9.37;;;8.43;;
4634;SDS011;2330;48.158;11.816;2023-06-10T05:24:22;10.07;;;9.10;;
4634;SDS011;2330;48.158;11.816;2023-06-10T05:26:49;10.20;;;9.30;;
4634;SDS011;2330;48.158;11.816;2023-06-10T05:29:16;11.00;;;10.00;;
4634;SDS011;2330;48.158;11.816;2023-06-10T05:31:43;11.47;;;8.53;;
4634;SDS011;2330;48.158;11.816;2023-06-10T05:34:10;9.00;;;8.27;;
4634;SDS011;2330;48.158;11.816;2023-06-10T05:36:37;10.47;;;8.80;;
4634;SDS011;2330;48.158;11.816;2023-06-10T05:39:04;9.77;;;8.80;;
4634;SDS011;2330;48.158;11.816;2023-06-10T05:41:30;9.63;;;8.73;;
4634;SDS011;2330;48.158;11.816;2023-06-10T05:43:57;8.47;;;7.67;;
4634;SDS011;2330;48.158;11.816;2023-06-10T05:46:24;8.90;;;8.20;;
4634;SDS011;2330;48.158;11.816;2023-06-10T05:48:51;8.47;;;7.37;;
4634;SDS011;2330;48.158;11.816;2023-06-10T05:51:18;9.23;;;8.40;;
4634;SDS011;2330;48.158;11.816;2023-06-10T05:53:44;9.30;;;8.40;;
4634;SDS011;2330;48.158;11.816;2023-06-10T05:56:13;9.83;;;9.00;;
4634;SDS011;2330;48.158;11.816;2023-06-10T05:58:40;8.03;;;7.33;;
4634;SDS011;2330;48.158;11.816;2023-06-10T06:01:07;9.00;;;8.20;;
4634;SDS011;2330;48.158;11.816;2023-06-10T06:03:34;7.57;;;6.97;;
4634;SDS011;2330;48.158;11.816;2023-06-10T06:06:02;8.37;;;7.67;;
4634;SDS011;2330;48.158;11.816;2023-06-10T06:08:29;8.70;;;8.00;;
4634;SDS011;2330;48.158;11.816;2023-06-10T06:10:56;7.63;;;7.03;;
4634;SDS011;2330;48.158;11.816;2023-06-10T06:13:24;9.23;;;8.43;;
4634;SDS011;2330;48.158;11.816;2023-06-10T06:15:50;9.00;;;8.20;;
4634;SDS011;2330;48.158;11.816;2023-06-10T06:18:17;7.50;;;6.83;;
4634;SDS011;2330;48.158;11.816;2023-06-10T06:20:45;7.80;;;7.10;;
4634;SDS011;2330;48.158;11.816;2023-06-10T06:23:11;7.33;;;6.60;;
4634;SDS011;2330;48.158;11.816;2023-06-10T06:25:38;8.33;;;7.63;;
4634;SDS011;2330;48.158;11.816;2023-06-10T06:28:06;7.40;;;6.77;;
4634;SDS011;2330;48.158;11.816;2023-06-10T06:30:33;7.63;;;6.17;;
4634;SDS011;2330;48.158;11.816;2023-06-10T06:33:00;7.77;;;7.07;;
4634;SDS011;2330;48.158;11.816;2023-06-10T06:35:30;6.90;;;6.20;;
4634;SDS011;2330;48.158;11.816;2023-06-10T06:37:57;6.40;;;5.90;;
4634;SDS011;2330;48.158;11.816;2023-06-10T06:40:25;6.20;;;5.70;;
4634;SDS011;2330;48.158;11.816;2023-06-10T06:42:51;5.40;;;5.00;;
4634;SDS011;2330;48.158;11.816;2023-06-10T06:45:18;5.97;;;5.47;;
4634;SDS011;2330;48.158;11.816;2023-06-10T06:47:45;6.03;;;5.43;;
4634;SDS011;2330;48.158;11.816;2023-06-10T06:50:12;5.30;;;4.90;;
4634;SDS011;2330;48.158;11.816;2023-06-10T06:52:39;6.37;;;5.80;;
4634;SDS011;2330;48.158;11.816;2023-06-10T06:55:06;4.43;;;4.03;;
4634;SDS011;2330;48.158;11.816;2023-06-10T06:57:33;4.90;;;4.50;;
4634;SDS011;2330;48.158;11.816;2023-06-10T07:00:00;4.97;;;4.47;;
4634;SDS011;2330;48.158;11.816;2023-06-10T07:02:27;4.57;;;4.23;;
4634;SDS011;2330;48.158;11.816;2023-06-10T07:04:54;4.23;;;3.93;;
4634;SDS011;2330;48.158;11.816;2023-06-10T07:07:22;4.50;;;4.13;;
4634;SDS011;2330;48.158;11.816;2023-06-10T07:09:49;5.07;;;4.67;;
4634;SDS011;2330;48.158;11.816;2023-06-10T07:12:15;4.37;;;3.97;;
4634;SDS011;2330;48.158;11.816;2023-06-10T07:14:44;4.70;;;4.30;;
4634;SDS011;2330;48.158;11.816;2023-06-10T07:17:11;4.50;;;4.10;;
4634;SDS011;2330;48.158;11.816;2023-06-10T07:19:38;5.53;;;4.47;;
4634;SDS011;2330;48.158;11.816;2023-06-10T07:22:05;4.50;;;4.20;;
4634;SDS011;2330;48.158;11.816;2023-06-10T07:24:32;4.83;;;4.40;;
4634;SDS011;2330;48.158;11.816;2023-06-10T07:26:58;4.80;;;4.40;;
4634;SDS011;2330;48.158;11.816;2023-06-10T07:29:25;5.40;;;4.90;;
4634;SDS011;2330;48.158;11.816;2023-06-10T07:31:52;3.87;;;3.57;;
4634;SDS011;2330;48.158;11.816;2023-06-10T07:34:19;4.50;;;4.20;;
4634;SDS011;2330;48.158;11.816;2023-06-10T07:36:46;4.33;;;3.97;;
4634;SDS011;2330;48.158;11.816;2023-06-10T07:39:13;4.23;;;3.70;;
4634;SDS011;2330;48.158;11.816;2023-06-10T07:41:39;4.00;;;3.70;;
4634;SDS011;2330;48.158;11.816;2023-06-10T07:44:06;4.83;;;4.40;;
4634;SDS011;2330;48.158;11.816;2023-06-10T07:46:33;4.90;;;4.50;;
4634;SDS011;2330;48.158;11.816;2023-06-10T07:49:00;4.30;;;4.00;;
4634;SDS011;2330;48.158;11.816;2023-06-10T07:51:27;3.53;;;3.33;;
4634;SDS011;2330;48.158;11.816;2023-06-10T07:53:53;4.20;;;3.43;;
4634;SDS011;2330;48.158;11.816;2023-06-10T07:56:20;3.83;;;3.33;;
4634;SDS011;2330;48.158;11.816;2023-06-10T07:58:47;4.00;;;3.70;;
4634;SDS011;2330;48.158;11.816;2023-06-10T08:01:14;4.23;;;3.93;;
4634;SDS011;2330;48.158;11.816;2023-06-10T08:03:42;6.27;;;4.30;;
4634;SDS011;2330;48.158;11.816;2023-06-10T08:06:09;4.57;;;4.20;;
4634;SDS011;2330;48.158;11.816;2023-06-10T08:08:37;4.20;;;3.80;;
4634;SDS011;2330;48.158;11.816;2023-06-10T08:11:10;4.20;;;3.80;;
4634;SDS011;2330;48.158;11.816;2023-06-10T08:13:37;4.93;;;3.70;;
4634;SDS011;2330;48.158;11.816;2023-06-10T08:16:04;6.90;;;3.97;;
4634;SDS011;2330;48.158;11.816;2023-06-10T08:18:31;3.63;;;3.33;;
4634;SDS011;2330;48.158;11.816;2023-06-10T08:20:58;3.50;;;3.20;;
4634;SDS011;2330;48.158;11.816;2023-06-10T08:23:25;3.63;;;3.40;;
4634;SDS011;2330;48.158;11.816;2023-06-10T08:25:51;3.30;;;3.10;;
4634;SDS011;2330;48.158;11.816;2023-06-10T08:28:18;3.93;;;3.00;;
4634;SDS011;2330;48.158;11.816;2023-06-10T08:30:45;3.40;;;3.10;;
4634;SDS011;2330;48.158;11.816;2023-06-10T08:33:12;4.40;;;4.00;;
4634;SDS011;2330;48.158;11.816;2023-06-10T08:35:39;5.80;;;3.73;;
4634;SDS011;2330;48.158;11.816;2023-06-10T08:38:06;4.37;;;3.97;;
4634;SDS011;2330;48.158;11.816;2023-06-10T08:40:33;3.80;;;3.50;;
4634;SDS011;2330;48.158;11.816;2023-06-10T08:43:02;5.00;;;3.50;;
4634;SDS011;2330;48.158;11.816;2023-06-10T08:45:37;3.83;;;3.53;;
4634;SDS011;2330;48.158;11.816;2023-06-10T08:48:04;4.30;;;3.90;;
4634;SDS011;2330;48.158;11.816;2023-06-10T08:50:34;6.63;;;4.17;;
4634;SDS011;2330;48.158;11.816;2023-06-10T08:53:05;4.77;;;3.60;;
4634;SDS011;2330;48.158;11.816;2023-06-10T08:58:02;9.00;;;4.37;;
4634;SDS011;2330;48.158;11.816;2023-06-10T09:00:30;3.93;;;3.63;;
4634;SDS011;2330;48.158;11.816;2023-06-10T09:02:58;4.20;;;3.90;;
4634;SDS011;2330;48.158;11.816;2023-06-10T09:05:32;4.00;;;3.70;;
4634;SDS011;2330;48.158;11.816;2023-06-10T09:08:00;4.07;;;3.77;;
4634;SDS011;2330;48.158;11.816;2023-06-10T09:10:27;4.77;;;4.17;;
4634;SDS011;2330;48.158;11.816;2023-06-10T09:12:54;9.83;;;4.93;;
4634;SDS011;2330;48.158;11.816;2023-06-10T09:15:21;4.60;;;4.30;;
4634;SDS011;2330;48.158;11.816;2023-06-10T09:17:48;4.37;;;4.00;;
4634;SDS011;2330;48.158;11.816;2023-06-10T09:20:16;3.80;;;3.60;;
4634;SDS011;2330;48.158;11.816;2023-06-10T09:22:43;3.20;;;2.97;;
4634;SDS011;2330;48.158;11.816;2023-06-10T09:25:11;3.47;;;3.17;;
4634;SDS011;2330;48.158;11.816;2023-06-10T09:27:49;4.33;;;3.73;;
4634;SDS011;2330;48.158;11.816;2023-06-10T09:30:24;3.67;;;3.30;;
4634;SDS011;2330;48.158;11.816;2023-06-10T09:32:56;3.60;;;3.30;;
4634;SDS011;2330;48.158;11.816;2023-06-10T09:35:24;4.00;;;3.70;;
4634;SDS011;2330;48.158;11.816;2023-06-10T09:37:52;3.83;;;3.53;;
4634;SDS011;2330;48.158;11.816;2023-06-10T09:40:21;5.20;;;3.70;;
4634;SDS011;2330;48.158;11.816;2023-06-10T09:42:52;3.50;;;3.20;;
4634;SDS011;2330;48.158;11.816;2023-06-10T09:45:21;4.20;;;3.80;;
4634;SDS011;2330;48.158;11.816;2023-06-10T09:47:52;4.10;;;3.80;;
4634;SDS011;2330;48.158;11.816;2023-06-10T09:50:20;4.40;;;3.50;;
4634;SDS011;2330;48.158;11.816;2023-06-10T09:52:47;3.53;;;3.23;;
4634;SDS011;2330;48.158;11.816;2023-06-10T09:55:14;3.70;;;3.40;;
4634;SDS011;2330;48.158;11.816;2023-06-10T09:57:41;3.50;;;3.20;;
4634;SDS011;2330;48.158;11.816;2023-06-10T10:00:11;4.00;;;3.10;;
4634;SDS011;2330;48.158;11.816;2023-06-10T10:02:48;3.90;;;3.47;;
4634;SDS011;2330;48.158;11.816;2023-06-10T10:05:20;4.30;;;3.90;;
4634;SDS011;2330;48.158;11.816;2023-06-10T10:07:48;3.67;;;3.37;;
4634;SDS011;2330;48.158;11.816;2023-06-10T10:10:16;3.90;;;3.60;;
4634;SDS011;2330;48.158;11.816;2023-06-10T10:12:45;3.10;;;2.90;;
4634;SDS011;2330;48.158;11.816;2023-06-10T10:15:15;3.53;;;3.30;;
4634;SDS011;2330;48.158;11.816;2023-06-10T10:17:45;3.73;;;3.40;;
4634;SDS011;2330;48.158;11.816;2023-06-10T10:20:17;4.07;;;3.00;;
4634;SDS011;2330;48.158;11.816;2023-06-10T10:22:48;4.00;;;3.70;;
4634;SDS011;2330;48.158;11.816;2023-06-10T10:28:10;5.63;;;3.10;;
4634;SDS011;2330;48.158;11.816;2023-06-10T10:31:01;8.77;;;3.43;;
4634;SDS011;2330;48.158;11.816;2023-06-10T10:33:31;2.57;;;2.37;;
4634;SDS011;2330;48.158;11.816;2023-06-10T10:36:05;3.20;;;3.00;;
4634;SDS011;2330;48.158;11.816;2023-06-10T10:38:34;4.00;;;3.10;;
4634;SDS011;2330;48.158;11.816;2023-06-10T10:41:02;2.77;;;2.57;;
4634;SDS011;2330;48.158;11.816;2023-06-10T10:43:31;5.00;;;3.30;;
4634;SDS011;2330;48.158;11.816;2023-06-10T10:46:03;2.70;;;2.50;;
4634;SDS011;2330;48.158;11.816;2023-06-10T10:48:38;3.87;;;2.50;;
4634;SDS011;2330;48.158;11.816;2023-06-10T10:51:07;2.43;;;2.23;;
4634;SDS011;2330;48.158;11.816;2023-06-10T10:53:39;2.63;;;2.43;;
4634;SDS011;2330;48.158;11.816;2023-06-10T10:56:07;2.60;;;2.40;;
4634;SDS011;2330;48.158;11.816;2023-06-10T10:58:40;3.80;;;2.20;;
4634;SDS011;2330;48.158;11.816;2023-06-10T11:01:14;2.47;;;2.27;;
4634;SDS011;2330;48.158;11.816;2023-06-10T11:03:44;6.20;;;2.83;;
4634;SDS011;2330;48.158;11.816;2023-06-10T11:06:14;2.93;;;2.73;;
4634;SDS011;2330;48.158;11.816;2023-06-10T11:11:20;2.47;;;2.00;;
4634;SDS011;2330;48.158;11.816;2023-06-10T11:16:28;2.87;;;2.60;;
4634;SDS011;2330;48.158;11.816;2023-06-10T11:18:55;2.30;;;2.10;;
4634;SDS011;2330;48.158;11.816;2023-06-10T11:21:24;2.40;;;2.20;;
4634;SDS011;2330;48.158;11.816;2023-06-10T11:23:57;2.00;;;1.90;;
4634;SDS011;2330;48.158;11.816;2023-06-10T11:31:29;2.60;;;2.40;;
4634;SDS011;2330;48.158;11.816;2023-06-10T11:33:58;2.30;;;2.13;;
4634;SDS011;2330;48.158;11.816;2023-06-10T11:36:26;2.33;;;2.13;;
4634;SDS011;2330;48.158;11.816;2023-06-10T11:38:58;2.57;;;2.37;;
4634;SDS011;2330;48.158;11.816;2023-06-10T11:41:27;2.57;;;2.37;;
4634;SDS011;2330;48.158;11.816;2023-06-10T11:43:55;2.53;;;2.33;;
4634;SDS011;2330;48.158;11.816;2023-06-10T11:46:23;2.87;;;2.67;;
4634;SDS011;2330;48.158;11.816;2023-06-10T11:48:54;7.00;;;2.60;;
4634;SDS011;2330;48.158;11.816;2023-06-10T11:51:24;2.23;;;2.10;;
4634;SDS011;2330;48.158;11.816;2023-06-10T11:53:53;2.40;;;2.20;;
4634;SDS011;2330;48.158;11.816;2023-06-10T11:56:24;2.23;;;2.03;;
4634;SDS011;2330;48.158;11.816;2023-06-10T11:58:52;2.40;;;2.20;;
4634;SDS011;2330;48.158;11.816;2023-06-10T12:01:21;2.30;;;2.20;;
4634;SDS011;2330;48.158;11.816;2023-06-10T12:04:02;2.23;;;2.03;;
4634;SDS011;2330;48.158;11.816;2023-06-10T12:09:17;2.80;;;2.60;;
4634;SDS011;2330;48.158;11.816;2023-06-10T12:17:16;3.27;;;3.07;;
4634;SDS011;2330;48.158;11.816;2023-06-10T12:19:43;2.57;;;2.40;;
4634;SDS011;2330;48.158;11.816;2023-06-10T12:22:10;3.27;;;2.90;;
4634;SDS011;2330;48.158;11.816;2023-06-10T12:24:43;9.43;;;3.43;;
4634;SDS011;2330;48.158;11.816;2023-06-10T12:27:26;3.50;;;3.20;;
4634;SDS011;2330;48.158;11.816;2023-06-10T12:29:56;5.87;;;3.77;;
4634;SDS011;2330;48.158;11.816;2023-06-10T12:32:43;3.97;;;3.67;;
4634;SDS011;2330;48.158;11.816;2023-06-10T12:35:11;4.23;;;3.40;;
4634;SDS011;2330;48.158;11.816;2023-06-10T12:37:40;4.60;;;3.57;;
4634;SDS011;2330;48.158;11.816;2023-06-10T12:40:09;3.97;;;3.67;;
4634;SDS011;2330;48.158;11.816;2023-06-10T12:42:37;4.63;;;3.40;;
4634;SDS011;2330;48.158;11.816;2023-06-10T12:45:05;3.40;;;3.20;;
4634;SDS011;2330;48.158;11.816;2023-06-10T12:47:35;4.70;;;3.67;;
4634;SDS011;2330;48.158;11.816;2023-06-10T12:50:05;4.67;;;3.90;;
4634;SDS011;2330;48.158;11.816;2023-06-10T12:52:33;3.80;;;3.40;;
4634;SDS011;2330;48.158;11.816;2023-06-10T12:55:00;3.03;;;2.83;;
4634;SDS011;2330;48.158;11.816;2023-06-10T12:57:27;3.33;;;3.10;;
4634;SDS011;2330;48.158;11.816;2023-06-10T12:59:54;3.87;;;3.57;;
4634;SDS011;2330;48.158;11.816;2023-06-10T13:02:23;3.93;;;3.13;;
4634;SDS011;2330;48.158;11.816;2023-06-10T13:04:50;3.10;;;2.90;;
4634;SDS011;2330;48.158;11.816;2023-06-10T13:07:17;3.40;;;3.10;;
4634;SDS011;2330;48.158;11.816;2023-06-10T13:09:44;4.00;;;3.70;;
4634;SDS011;2330;48.158;11.816;2023-06-10T13:12:11;3.40;;;3.20;;
4634;SDS011;2330;48.158;11.816;2023-06-10T13:14:41;3.13;;;2.90;;
4634;SDS011;2330;48.158;11.816;2023-06-10T13:17:08;4.03;;;3.63;;
4634;SDS011;2330;48.158;11.816;2023-06-10T13:19:35;3.77;;;3.47;;
4634;SDS011;2330;48.158;11.816;2023-06-10T13:22:03;3.40;;;3.13;;
4634;SDS011;2330;48.158;11.816;2023-06-10T13:24:29;3.07;;;2.87;;
4634;SDS011;2330;48.158;11.816;2023-06-10T13:26:56;3.30;;;3.00;;
4634;SDS011;2330;48.158;11.816;2023-06-10T13:29:23;3.80;;;3.20;;
4634;SDS011;2330;48.158;11.816;2023-06-10T13:31:50;3.87;;;2.77;;
4634;SDS011;2330;48.158;11.816;2023-06-10T13:34:17;3.30;;;2.73;;
4634;SDS011;2330;48.158;11.816;2023-06-10T13:36:44;3.13;;;2.83;;
4634;SDS011;2330;48.158;11.816;2023-06-10T13:39:11;3.10;;;2.90;;
4634;SDS011;2330;48.158;11.816;2023-06-10T13:41:40;3.67;;;3.37;;
4634;SDS011;2330;48.158;11.816;2023-06-10T13:44:07;3.23;;;3.00;;
4634;SDS011;2330;48.158;11.816;2023-06-10T13:46:34;3.10;;;2.90;;
4634;SDS011;2330;48.158;11.816;2023-06-10T13:49:01;2.57;;;2.43;;
4634;SDS011;2330;48.158;11.816;2023-06-10T13:51:28;2.90;;;2.70;;
4634;SDS011;2330;48.158;11.816;2023-06-10T13:53:55;3.67;;;3.37;;
4634;SDS011;2330;48.158;11.816;2023-06-10T13:56:21;3.60;;;2.73;;
4634;SDS011;2330;48.158;11.816;2023-06-10T13:58:49;3.10;;;2.90;;
4634;SDS011;2330;48.158;11.816;2023-06-10T14:01:15;2.87;;;2.67;;
4634;SDS011;2330;48.158;11.816;2023-06-10T14:03:42;2.63;;;2.43;;
4634;SDS011;2330;48.158;11.816;2023-06-10T14:06:09;2.93;;;2.73;;
4634;SDS011;2330;48.158;11.816;2023-06-10T14:08:39;2.97;;;2.73;;
4634;SDS011;2330;48.158;11.816;2023-06-10T14:11:06;2.97;;;2.50;;
4634;SDS011;2330;48.158;11.816;2023-06-10T14:13:32;4.10;;;2.70;;
4634;SDS011;2330;48.158;11.816;2023-06-10T14:16:00;2.53;;;2.13;;
4634;SDS011;2330;48.158;11.816;2023-06-10T14:18:29;2.80;;;2.60;;
4634;SDS011;2330;48.158;11.816;2023-06-10T14:20:55;3.20;;;3.00;;
4634;SDS011;2330;48.158;11.816;2023-06-10T14:23:22;3.40;;;2.90;;
4634;SDS011;2330;48.158;11.816;2023-06-10T14:25:50;3.13;;;2.83;;
4634;SDS011;2330;48.158;11.816;2023-06-10T14:28:17;3.60;;;3.30;;
4634;SDS011;2330;48.158;11.816;2023-06-10T14:30:44;4.13;;;3.73;;
4634;SDS011;2330;48.158;11.816;2023-06-10T14:33:10;3.63;;;3.33;;
4634;SDS011;2330;48.158;11.816;2023-06-10T14:35:37;3.60;;;3.30;;
4634;SDS011;2330;48.158;11.816;2023-06-10T14:38:04;3.10;;;2.90;;
4634;SDS011;2330;48.158;11.816;2023-06-10T14:40:33;4.00;;;3.70;;
4634;SDS011;2330;48.158;11.816;2023-06-10T14:43:00;3.50;;;3.20;;
4634;SDS011;2330;48.158;11.816;2023-06-10T14:45:30;3.83;;;3.40;;
4634;SDS011;2330;48.158;11.816;2023-06-10T14:48:00;3.20;;;2.87;;
4634;SDS011;2330;48.158;11.816;2023-06-10T14:50:27;3.83;;;3.53;;
4634;SDS011;2330;48.158;11.816;2023-06-10T14:52:54;4.73;;;3.30;;
4634;SDS011;2330;48.158;11.816;2023-06-10T14:55:21;4.83;;;3.73;;
4634;SDS011;2330;48.158;11.816;2023-06-10T14:57:49;3.60;;;3.30;;
4634;SDS011;2330;48.158;11.816;2023-06-10T15:00:16;3.40;;;2.80;;
4634;SDS011;2330;48.158;11.816;2023-06-10T15:02:46;3.33;;;3.13;;
4634;SDS011;2330;48.158;11.816;2023-06-10T15:05:14;3.97;;;3.67;;
4634;SDS011;2330;48.158;11.816;2023-06-10T15:07:42;3.80;;;3.50;;
4634;SDS011;2330;48.158;11.816;2023-06-10T15:10:09;3.57;;;3.37;;
4634;SDS011;2330;48.158;11.816;2023-06-10T15:12:36;3.30;;;3.10;;
4634;SDS011;2330;48.158;11.816;2023-06-10T15:15:03;4.20;;;3.90;;
4634;SDS011;2330;48.158;11.816;2023-06-10T15:17:30;3.80;;;3.50;;
4634;SDS011;2330;48.158;11.816;2023-06-10T15:19:57;3.70;;;3.40;;
4634;SDS011;2330;48.158;11.816;2023-06-10T15:22:24;3.53;;;3.13;;
4634;SDS011;2330;48.158;11.816;2023-06-10T15:24:50;3.50;;;3.27;;
4634;SDS011;2330;48.158;11.816;2023-06-10T15:27:17;4.20;;;3.63;;
4634;SDS011;2330;48.158;11.816;2023-06-10T15:29:44;3.80;;;3.47;;
4634;SDS011;2330;48.158;11.816;2023-06-10T15:32:11;5.90;;;4.27;;